Lake Forest, Missouri
Current Conditions -  °F | °C
As of 3:35 PM on Wednesday 26 Nov 2014 (Local Time) from KSAR Reporting Station
Light Snow Light Snow  
Wind Chill: 32°   Ceiling: 300
Heat Index: 32°   Visibility: 0.5mi
Dew Point: 32°   Wind: 0mph
Humidity: 99%   Direction: NA
Pressure: 30.02"   Gusts: NA
Location:  37.9762°N, 90.0499°W
Report Text: KSAR 262135Z AUTO 00000KT 1/2SM -SN OVC003 00/00 A3002 RMK AO2 P0001 T00001001
Loading
Personal Weather Stations






























Interactive Weather Map New forecast layout! Learn more

10-Day Weather Forecast

Advertisements
Track Severe Weather on mobile